createdAt,value
2018-06-05T00:01:23.428Z,16.40
2018-06-05T00:03:51.710Z,16.40
2018-06-05T00:08:48.102Z,16.40
2018-06-05T00:11:16.454Z,16.30
2018-06-05T00:13:44.931Z,16.30
2018-06-05T00:16:13.206Z,16.20
2018-06-05T00:18:41.571Z,16.20
2018-06-05T00:21:09.877Z,16.20
2018-06-05T00:23:38.235Z,16.20
2018-06-05T00:26:06.577Z,16.10
2018-06-05T00:28:34.890Z,16.20
2018-06-05T00:31:03.158Z,16.20
2018-06-05T00:33:31.435Z,16.10
2018-06-05T00:35:59.719Z,16.10
2018-06-05T00:38:28.029Z,16.10
2018-06-05T00:40:56.447Z,16.10
2018-06-05T00:43:24.732Z,16.10
2018-06-05T00:45:53.066Z,16.10
2018-06-05T00:48:21.505Z,16.10
2018-06-05T00:50:49.940Z,16.10
2018-06-05T00:53:18.271Z,16.00
2018-06-05T00:55:46.597Z,16.00
2018-06-05T00:58:14.891Z,15.90
2018-06-05T01:00:43.200Z,16.00
2018-06-05T01:03:11.460Z,16.00
2018-06-05T01:05:39.772Z,15.90
2018-06-05T01:08:08.012Z,16.00
2018-06-05T01:10:36.372Z,16.00
2018-06-05T01:13:04.707Z,16.00
2018-06-05T01:15:33.004Z,16.00
2018-06-05T01:18:01.363Z,16.00
2018-06-05T01:20:29.624Z,16.00
2018-06-05T01:22:57.877Z,16.00
2018-06-05T01:25:26.199Z,16.10
2018-06-05T01:27:54.434Z,16.10
2018-06-05T01:30:22.753Z,16.20
2018-06-05T01:32:51.004Z,16.20
2018-06-05T01:35:19.297Z,16.30
2018-06-05T01:37:47.534Z,16.30
2018-06-05T01:40:15.839Z,16.40
2018-06-05T01:42:44.210Z,16.40
2018-06-05T01:45:12.554Z,16.40
2018-06-05T01:47:40.928Z,16.40
2018-06-05T01:50:09.240Z,16.40
2018-06-05T01:52:38.616Z,16.30
2018-06-05T01:55:06.931Z,16.30
2018-06-05T01:57:35.240Z,16.20
2018-06-05T02:00:03.582Z,16.10
2018-06-05T02:02:31.935Z,16.10
2018-06-05T02:05:00.372Z,16.00
2018-06-05T02:07:28.747Z,16.00
2018-06-05T02:09:57.007Z,16.00
2018-06-05T02:12:25.337Z,16.00
2018-06-05T02:14:53.683Z,16.00
2018-06-05T02:17:22.076Z,16.00
2018-06-05T02:19:50.477Z,16.10
2018-06-05T02:22:18.915Z,16.10
2018-06-05T02:24:47.299Z,16.10
2018-06-05T02:27:15.666Z,16.10
2018-06-05T02:29:43.936Z,16.10
2018-06-05T02:32:12.236Z,16.10
2018-06-05T02:34:40.598Z,16.20
2018-06-05T02:37:08.888Z,16.20
2018-06-05T02:39:37.154Z,16.20
2018-06-05T02:42:05.444Z,16.20
2018-06-05T02:44:33.729Z,16.20
2018-06-05T02:47:02.052Z,16.20
2018-06-05T02:49:30.459Z,16.20
2018-06-05T02:51:58.921Z,16.20
2018-06-05T02:54:27.241Z,16.20
2018-06-05T02:56:55.518Z,16.20
2018-06-05T02:59:23.792Z,16.10
2018-06-05T03:01:52.049Z,16.20
2018-06-05T03:04:20.331Z,16.20
2018-06-05T03:06:48.596Z,16.20
2018-06-05T03:09:16.902Z,16.20
2018-06-05T03:11:45.183Z,16.20
2018-06-05T03:14:13.523Z,16.20
2018-06-05T03:16:41.807Z,16.20
2018-06-05T03:19:10.113Z,16.30
2018-06-05T03:24:06.510Z,16.30
2018-06-05T03:26:34.873Z,16.30
2018-06-05T03:29:03.214Z,16.40
2018-06-05T03:31:31.484Z,16.40
2018-06-05T03:33:59.794Z,16.40
2018-06-05T03:36:28.029Z,16.50
2018-06-05T03:38:56.323Z,16.50
2018-06-05T03:41:24.736Z,16.60
2018-06-05T03:43:53.065Z,16.60
2018-06-05T03:46:21.432Z,16.60
2018-06-05T03:48:49.750Z,16.70
2018-06-05T03:51:18.122Z,16.70
2018-06-05T03:53:46.446Z,16.70
2018-06-05T03:56:14.772Z,16.70
2018-06-05T03:58:43.060Z,16.80
2018-06-05T04:01:11.335Z,16.80
2018-06-05T04:06:07.779Z,16.80
2018-06-05T04:08:36.074Z,16.80
2018-06-05T04:11:04.344Z,16.80
2018-06-05T04:13:32.785Z,16.90
2018-06-05T04:16:01.085Z,16.80
2018-06-05T04:18:29.424Z,16.90
2018-06-05T04:20:57.782Z,16.90
2018-06-05T04:23:26.239Z,16.90
2018-06-05T04:25:54.516Z,16.90
2018-06-05T04:28:22.887Z,16.90
2018-06-05T04:30:51.210Z,16.90
2018-06-05T04:33:19.621Z,16.90
2018-06-05T04:35:48.240Z,16.90
2018-06-05T04:38:16.625Z,16.90
2018-06-05T04:40:45.077Z,16.90
2018-06-05T04:43:13.399Z,16.90
2018-06-05T04:45:41.809Z,17.00
2018-06-05T04:48:10.327Z,17.00
2018-06-05T04:50:38.669Z,16.90
2018-06-05T04:53:07.178Z,17.00
2018-06-05T04:55:35.490Z,17.00
2018-06-05T04:58:03.771Z,17.00
2018-06-05T05:00:32.073Z,17.00
2018-06-05T05:03:00.552Z,16.90
2018-06-05T05:05:29.871Z,17.00
2018-06-05T05:07:58.224Z,16.90
2018-06-05T05:10:26.588Z,17.00
2018-06-05T05:12:54.861Z,17.00
2018-06-05T05:15:23.365Z,17.10
2018-06-05T05:17:51.695Z,17.10
2018-06-05T05:20:20.086Z,17.10
2018-06-05T05:22:48.413Z,17.20
2018-06-05T05:25:16.764Z,17.10
2018-06-05T05:27:45.092Z,17.10
2018-06-05T05:30:13.566Z,17.20
2018-06-05T05:32:41.902Z,17.20
2018-06-05T05:35:11.264Z,17.20
2018-06-05T05:37:39.608Z,17.30
2018-06-05T05:40:07.946Z,17.30
2018-06-05T05:42:36.387Z,17.40
2018-06-05T05:45:05.175Z,17.40
2018-06-05T05:47:33.561Z,17.50
2018-06-05T05:50:01.931Z,17.40
2018-06-05T05:52:30.283Z,17.40
2018-06-05T05:54:58.701Z,17.50
2018-06-05T05:57:27.115Z,17.40
2018-06-05T05:59:55.421Z,17.40
2018-06-05T06:02:23.784Z,17.40
2018-06-05T06:04:52.132Z,17.50
2018-06-05T06:07:20.466Z,17.50
2018-06-05T06:09:51.066Z,17.50
2018-06-05T06:12:19.819Z,17.70
2018-06-05T06:14:48.130Z,17.70
2018-06-05T06:17:16.486Z,17.80
2018-06-05T06:19:45.292Z,17.80
2018-06-05T06:22:13.582Z,17.70
2018-06-05T06:27:10.079Z,17.80
2018-06-05T06:29:38.389Z,17.90
2018-06-05T06:32:06.919Z,18.00
2018-06-05T06:34:35.313Z,18.00
2018-06-05T06:37:03.640Z,17.90
2018-06-05T06:39:32.058Z,17.90
2018-06-05T06:42:00.408Z,17.90
2018-06-05T06:46:56.866Z,17.80
2018-06-05T06:49:25.153Z,17.90
2018-06-05T06:51:53.559Z,17.90
2018-06-05T06:54:21.905Z,17.90
2018-06-05T06:56:50.262Z,17.60
2018-06-05T07:01:46.896Z,17.60
2018-06-05T07:04:15.218Z,17.50
2018-06-05T07:06:43.592Z,17.50
2018-06-05T07:09:11.923Z,17.60
2018-06-05T07:11:40.263Z,17.60
2018-06-05T07:14:08.653Z,17.80
2018-06-05T07:16:37.026Z,17.90
2018-06-05T07:19:05.459Z,18.00
2018-06-05T07:21:33.838Z,18.10
2018-06-05T07:24:02.196Z,18.20
2018-06-05T07:26:30.523Z,18.30
2018-06-05T07:28:58.816Z,18.40
2018-06-05T07:31:27.183Z,18.50
2018-06-05T07:36:23.631Z,18.60
2018-06-05T07:38:51.907Z,18.70
2018-06-05T07:41:20.226Z,18.70
2018-06-05T07:43:48.622Z,18.80
2018-06-05T07:46:16.939Z,18.80
2018-06-05T07:48:45.305Z,18.70
2018-06-05T07:51:13.597Z,18.90
2018-06-05T07:53:41.929Z,18.80
2018-06-05T07:56:10.247Z,19.00
2018-06-05T07:58:38.562Z,19.10
2018-06-05T08:01:06.907Z,19.30
2018-06-05T08:08:31.367Z,19.60
2018-06-05T08:10:59.698Z,19.80
2018-06-05T08:13:28.025Z,20.00
2018-06-05T08:15:56.347Z,20.20
2018-06-05T08:18:24.682Z,20.40
2018-06-05T08:20:53.027Z,20.40
2018-06-05T08:23:21.292Z,20.10
2018-06-05T08:25:49.588Z,20.10
2018-06-05T08:28:17.834Z,20.10
2018-06-05T08:30:46.151Z,20.00
2018-06-05T08:33:14.567Z,20.10
2018-06-05T08:35:42.915Z,20.10
2018-06-05T08:38:11.261Z,20.30
2018-06-05T08:40:39.585Z,20.60
2018-06-05T08:43:07.930Z,20.50
2018-06-05T08:45:36.229Z,20.60
2018-06-05T08:48:04.722Z,20.60
2018-06-05T08:50:33.107Z,20.40
2018-06-05T08:53:01.425Z,20.40
2018-06-05T08:55:29.732Z,20.40
2018-06-05T08:57:58.106Z,20.20
2018-06-05T09:00:26.404Z,20.40
2018-06-05T09:02:54.772Z,20.50
2018-06-05T09:05:23.184Z,20.70
2018-06-05T09:07:51.605Z,20.70
2018-06-05T09:10:19.928Z,21.10
2018-06-05T09:12:48.313Z,21.20
2018-06-05T09:15:16.677Z,21.10
2018-06-05T09:17:45.020Z,21.00
2018-06-05T09:20:13.373Z,21.00
2018-06-05T09:22:41.673Z,20.90
2018-06-05T09:25:09.995Z,21.10
2018-06-05T09:27:38.364Z,21.20
2018-06-05T09:30:06.645Z,21.40
2018-06-05T09:32:35.032Z,21.50
2018-06-05T09:35:03.377Z,21.40
2018-06-05T09:37:31.642Z,21.50
2018-06-05T09:40:05.690Z,21.50
2018-06-05T09:42:33.942Z,21.70
2018-06-05T09:45:02.240Z,21.50
2018-06-05T09:47:30.616Z,21.60
2018-06-05T09:49:58.876Z,21.70
2018-06-05T09:54:55.336Z,21.70
2018-06-05T09:57:23.634Z,21.50
2018-06-05T09:59:51.975Z,21.30
2018-06-05T10:02:20.272Z,21.30
2018-06-05T10:04:48.511Z,21.40
2018-06-05T10:07:16.840Z,21.50
2018-06-05T10:09:45.188Z,21.50
2018-06-05T10:12:13.514Z,21.50
2018-06-05T10:14:41.876Z,21.30
2018-06-05T10:17:10.291Z,21.30
2018-06-05T10:19:38.548Z,21.50
2018-06-05T10:22:06.908Z,21.70
2018-06-05T10:24:35.190Z,21.70
2018-06-05T10:27:03.624Z,21.60
2018-06-05T10:29:31.931Z,21.30
2018-06-05T10:34:28.275Z,21.30
2018-06-05T10:36:56.572Z,21.20
2018-06-05T10:39:25.938Z,21.40
2018-06-05T10:41:54.251Z,21.50
2018-06-05T10:44:22.504Z,21.50
2018-06-05T10:46:50.819Z,21.60
2018-06-05T10:49:19.159Z,21.60
2018-06-05T10:51:47.417Z,21.70
2018-06-05T10:54:15.975Z,21.50
2018-06-05T10:56:44.331Z,21.70
2018-06-05T10:59:12.710Z,21.60
2018-06-05T11:01:41.094Z,21.70
2018-06-05T11:04:09.504Z,22.00
2018-06-05T11:06:37.810Z,22.60
2018-06-05T11:09:07.902Z,23.30
2018-06-05T11:11:36.170Z,24.20
2018-06-05T11:14:04.516Z,24.30
2018-06-05T11:16:33.275Z,25.00
2018-06-05T11:19:01.559Z,25.20
2018-06-05T11:21:29.814Z,25.30
2018-06-05T11:23:58.417Z,25.70
2018-06-05T11:26:26.684Z,25.80
2018-06-05T11:28:54.981Z,25.80
2018-06-05T11:32:26.012Z,25.60
2018-06-05T11:34:54.292Z,26.00
2018-06-05T11:37:22.571Z,25.80
2018-06-05T11:39:50.855Z,25.50
2018-06-05T11:42:19.163Z,24.80
2018-06-05T11:44:47.688Z,24.60
2018-06-05T11:47:16.019Z,24.30
2018-06-05T11:49:44.382Z,24.60
2018-06-05T11:52:12.668Z,24.80
2018-06-05T11:54:40.923Z,25.40
2018-06-05T11:57:09.218Z,25.40
2018-06-05T11:59:37.560Z,25.80
2018-06-05T12:02:05.954Z,25.40
2018-06-05T12:04:34.262Z,25.50
2018-06-05T12:07:02.527Z,25.60
2018-06-05T12:09:30.824Z,25.50
2018-06-05T12:11:59.176Z,25.60
2018-06-05T12:14:27.451Z,25.50
2018-06-05T12:16:55.741Z,25.90
2018-06-05T12:19:24.025Z,26.00
2018-06-05T12:21:52.282Z,26.50
2018-06-05T12:24:20.593Z,26.40
2018-06-05T12:26:48.951Z,26.80
2018-06-05T12:29:17.235Z,26.30
2018-06-05T12:31:45.497Z,26.10
2018-06-05T12:34:13.788Z,25.80
2018-06-05T12:39:10.130Z,25.90
2018-06-05T12:41:38.419Z,26.50
2018-06-05T12:44:06.700Z,26.60
2018-06-05T12:46:35.048Z,25.80
2018-06-05T12:49:03.299Z,25.40
2018-06-05T12:51:31.621Z,25.60
2018-06-05T12:53:59.875Z,25.70
2018-06-05T12:56:28.196Z,25.90
2018-06-05T12:58:56.537Z,26.20
2018-06-05T13:01:24.851Z,26.10
2018-06-05T13:03:53.207Z,26.10
2018-06-05T13:06:21.612Z,26.20
2018-06-05T13:08:49.977Z,25.50
2018-06-05T13:11:18.408Z,25.50
2018-06-05T13:13:46.757Z,25.60
2018-06-05T13:16:15.115Z,26.20
2018-06-05T13:18:43.429Z,26.40
2018-06-05T13:21:11.806Z,26.30
2018-06-05T13:23:40.117Z,25.80
2018-06-05T13:26:08.418Z,25.50
2018-06-05T13:28:36.671Z,25.60
2018-06-05T13:31:05.051Z,25.70
2018-06-05T13:33:33.507Z,25.60
2018-06-05T13:36:01.992Z,25.40
2018-06-05T13:38:30.292Z,25.40
2018-06-05T13:40:58.679Z,25.50
2018-06-05T13:43:26.995Z,25.40
2018-06-05T13:45:55.376Z,25.60
2018-06-05T13:48:23.744Z,25.40
2018-06-05T13:50:52.227Z,25.50
2018-06-05T13:53:20.480Z,25.50
2018-06-05T13:55:48.759Z,25.20
2018-06-05T13:58:17.047Z,24.90
2018-06-05T14:00:45.327Z,24.80
2018-06-05T14:03:13.553Z,24.60
2018-06-05T14:05:41.922Z,24.40
2018-06-05T14:08:10.169Z,24.30
2018-06-05T14:10:38.429Z,24.30
2018-06-05T14:13:06.671Z,24.30
2018-06-05T14:15:35.113Z,24.30
2018-06-05T14:18:03.467Z,24.40
2018-06-05T14:20:32.507Z,24.40
2018-06-05T14:23:01.486Z,24.10
2018-06-05T14:25:29.819Z,23.90
2018-06-05T14:27:58.121Z,24.00
2018-06-05T14:30:26.376Z,24.00
2018-06-05T14:32:54.761Z,24.20
2018-06-05T14:35:23.076Z,24.40
2018-06-05T14:37:51.474Z,24.50
2018-06-05T14:40:19.782Z,24.70
2018-06-05T14:42:48.038Z,24.40
2018-06-05T14:45:16.498Z,24.60
2018-06-05T14:47:44.749Z,23.90
2018-06-05T14:50:13.074Z,24.20
2018-06-05T14:52:41.454Z,24.40
2018-06-05T14:55:09.746Z,24.50
2018-06-05T14:57:38.111Z,24.60
2018-06-05T15:00:06.445Z,24.80
2018-06-05T15:02:34.692Z,24.90
2018-06-05T15:05:02.934Z,24.70
2018-06-05T15:07:31.281Z,24.30
2018-06-05T15:09:59.694Z,24.30
2018-06-05T15:12:28.057Z,23.90
2018-06-05T15:14:56.416Z,24.20
2018-06-05T15:17:24.763Z,24.50
2018-06-05T15:19:52.986Z,24.80
2018-06-05T15:22:21.334Z,25.00
2018-06-05T15:27:17.663Z,24.80
2018-06-05T15:29:45.927Z,24.40
2018-06-05T15:32:14.242Z,24.40
2018-06-05T15:34:42.493Z,24.50
2018-06-05T15:37:10.761Z,24.30
2018-06-05T15:39:39.130Z,24.30
2018-06-05T15:42:07.411Z,24.30
2018-06-05T15:44:35.727Z,24.60
2018-06-05T15:47:04.004Z,24.60
2018-06-05T15:49:32.266Z,24.60
2018-06-05T15:52:00.536Z,24.80
2018-06-05T15:54:28.852Z,24.90
2018-06-05T15:56:57.284Z,24.90
2018-06-05T15:59:25.588Z,24.70
2018-06-05T16:01:53.847Z,24.80
2018-06-05T16:04:22.141Z,24.70
2018-06-05T16:11:46.550Z,24.70
2018-06-05T16:14:14.821Z,24.60
2018-06-05T16:16:43.082Z,24.60
2018-06-05T16:19:11.420Z,24.60
2018-06-05T16:21:40.119Z,24.70
2018-06-05T16:24:08.448Z,24.80
2018-06-05T16:26:36.693Z,24.60
2018-06-05T16:29:05.003Z,24.60
2018-06-05T16:31:33.265Z,24.60
2018-06-05T16:34:01.564Z,24.50
2018-06-05T16:36:29.852Z,24.30
2018-06-05T16:38:58.134Z,24.20
2018-06-05T16:41:26.383Z,24.20
2018-06-05T16:43:54.666Z,24.10
2018-06-05T16:46:22.907Z,24.10
2018-06-05T16:48:51.239Z,24.00
2018-06-05T16:53:47.777Z,23.70
2018-06-05T16:56:16.097Z,23.70
2018-06-05T16:58:44.322Z,23.60
2018-06-05T17:01:12.635Z,23.60
2018-06-05T17:03:40.988Z,23.40
2018-06-05T17:06:09.286Z,23.20
2018-06-05T17:08:37.679Z,23.10
2018-06-05T17:11:06.015Z,23.00
2018-06-05T17:13:34.318Z,23.00
2018-06-05T17:18:30.658Z,23.00
2018-06-05T17:20:59.020Z,23.10
2018-06-05T17:23:27.479Z,22.90
2018-06-05T17:25:55.816Z,22.80
2018-06-05T17:28:24.084Z,22.60
2018-06-05T17:33:20.509Z,22.40
2018-06-05T17:35:48.815Z,22.30
2018-06-05T17:38:17.102Z,22.20
2018-06-05T17:40:45.380Z,22.20
2018-06-05T17:43:13.616Z,22.30
2018-06-05T17:45:41.913Z,22.20
2018-06-05T17:48:10.181Z,22.20
2018-06-05T17:50:38.454Z,22.10
2018-06-05T17:53:06.720Z,22.00
2018-06-05T17:55:35.079Z,21.90
2018-06-05T17:58:03.431Z,21.90
2018-06-05T18:00:31.795Z,21.90
2018-06-05T18:03:00.047Z,21.80
2018-06-05T18:05:28.402Z,21.80
2018-06-05T18:07:56.847Z,21.70
2018-06-05T18:10:25.805Z,21.60
2018-06-05T18:12:54.114Z,21.60
2018-06-05T18:15:22.438Z,21.50
2018-06-05T18:17:50.834Z,21.40
2018-06-05T18:20:20.255Z,21.30
2018-06-05T18:22:48.656Z,21.20
2018-06-05T18:25:19.076Z,21.10
2018-06-05T18:27:47.399Z,21.10
2018-06-05T18:30:15.750Z,21.00
2018-06-05T18:32:44.024Z,20.90
2018-06-05T18:35:12.341Z,20.80
2018-06-05T18:37:40.760Z,20.70
2018-06-05T18:40:09.097Z,20.70
2018-06-05T18:42:37.491Z,20.70
2018-06-05T18:45:05.846Z,20.60
2018-06-05T18:47:34.162Z,20.50
2018-06-05T18:50:02.592Z,20.50
2018-06-05T18:52:31.010Z,20.30
2018-06-05T18:54:59.386Z,20.20
2018-06-05T18:57:28.163Z,20.00
2018-06-05T18:59:56.554Z,19.90
2018-06-05T19:02:24.819Z,19.80
2018-06-05T19:04:53.159Z,19.70
2018-06-05T19:09:49.637Z,19.60
2018-06-05T19:12:18.108Z,19.40
2018-06-05T19:14:46.403Z,19.40
2018-06-05T19:17:14.778Z,19.20
2018-06-05T19:19:43.216Z,19.10
2018-06-05T19:22:11.548Z,19.10
2018-06-05T19:24:39.888Z,18.90
2018-06-05T19:27:08.426Z,18.80
2018-06-05T19:29:36.714Z,18.70
2018-06-05T19:32:05.112Z,18.50
2018-06-05T19:34:33.628Z,18.50
2018-06-05T19:37:02.044Z,18.30
2018-06-05T19:39:30.385Z,18.30
2018-06-05T19:41:58.677Z,18.10
2018-06-05T19:44:27.079Z,18.10
2018-06-05T19:46:56.429Z,18.00
2018-06-05T19:49:24.726Z,17.90
2018-06-05T19:51:53.122Z,17.90
2018-06-05T19:54:21.512Z,17.70
2018-06-05T19:56:49.960Z,17.70
2018-06-05T19:59:18.341Z,17.60
2018-06-05T20:01:46.705Z,17.40
2018-06-05T20:04:15.020Z,17.30
2018-06-05T20:06:43.404Z,17.30
2018-06-05T20:09:11.836Z,17.30
2018-06-05T20:11:40.114Z,17.20
2018-06-05T20:14:08.419Z,17.00
2018-06-05T20:16:36.767Z,17.00
2018-06-05T20:20:08.027Z,16.90
2018-06-05T20:22:36.373Z,16.80
2018-06-05T20:25:04.697Z,16.70
2018-06-05T20:27:32.981Z,16.70
2018-06-05T20:30:01.442Z,16.60
2018-06-05T20:34:57.968Z,16.50
2018-06-05T20:37:26.639Z,16.40
2018-06-05T20:39:54.978Z,16.30
2018-06-05T20:42:23.383Z,16.20
2018-06-05T20:44:51.765Z,16.10
2018-06-05T20:47:20.016Z,16.00
2018-06-05T20:49:48.437Z,16.00
2018-06-05T20:52:16.792Z,15.90
2018-06-05T20:54:45.183Z,15.70
2018-06-05T20:57:13.553Z,15.70
2018-06-05T20:59:41.958Z,15.60
2018-06-05T21:02:10.310Z,15.60
2018-06-05T21:04:38.792Z,15.50
2018-06-05T21:07:07.251Z,15.40
2018-06-05T21:09:35.612Z,15.40
2018-06-05T21:12:03.893Z,15.30
2018-06-05T21:14:32.194Z,15.30
2018-06-05T21:17:00.598Z,15.20
2018-06-05T21:19:29.031Z,15.10
2018-06-05T21:21:57.321Z,14.90
2018-06-05T21:24:25.641Z,14.90
2018-06-05T21:26:54.036Z,14.90
2018-06-05T21:29:22.373Z,14.80
2018-06-05T21:31:50.695Z,14.80
2018-06-05T21:34:18.991Z,14.60
2018-06-05T21:36:47.308Z,14.60
2018-06-05T21:39:15.683Z,14.50
2018-06-05T21:41:44.035Z,14.40
2018-06-05T23:22:04.011Z,13.90
2018-06-05T23:24:32.245Z,12.70
2018-06-05T23:27:00.552Z,12.60
2018-06-05T23:29:28.808Z,12.50
2018-06-05T23:31:57.087Z,12.50
2018-06-05T23:34:25.339Z,12.50
2018-06-05T23:36:53.683Z,12.40
2018-06-05T23:39:21.920Z,12.50
2018-06-05T23:41:50.192Z,12.40
2018-06-05T23:44:18.476Z,12.40
2018-06-05T23:46:46.752Z,12.40
2018-06-05T23:49:15.052Z,12.40
2018-06-05T23:51:43.305Z,12.40
2018-06-05T23:54:11.608Z,12.40
2018-06-05T23:59:07.963Z,12.40
